Latest Weather Observations for Port Hedland

IDW60801

Issued at 5:35 pm WST Saturday 29 November 2014 (issued every 30 minutes, with the page automatically refreshed every 10 minutes)

About weather observations | Map of weather stations | Latest weather observations for WA | Other Formats
Station Details ID: 004032 Name: PORT HEDLAND AIRPORT Lat: -20.37 Lon: 118.63 Height: 6.4 m
Data from the previous 72 hours. | See also: Recent months at Port Hedland
Date/Time
WST
Temp
°C
App
Temp
°C
Dew
Point
Rel
Hum
%
Delta-T
°C
Wind Press
QNH
hPa
Press
MSL
hPa
Rain
since 9 am
mm
Dir
 
Spd
km/h
Gust
km/h
Spd
kts
Gust
kts
29/05:30pm 33.3 30.6 18.4 41 9.7 WNW 30 39 16 21 1005.0 - 0.0
29/05:00pm 34.6 30.6 16.3 33 11.6 NW 32 37 17 20 1004.9 - 0.0
29/04:30pm 34.4 32.8 20.0 42 9.6 NW 28 35 15 19 1004.8 - 0.0
29/04:00pm 34.2 32.3 20.9 45 9.0 NW 32 41 17 22 1004.7 - 0.0
29/03:30pm 35.8 32.9 18.8 36 11.2 NW 32 39 17 21 1004.8 - 0.0
29/03:00pm 35.7 33.6 19.8 39 10.6 NW 30 35 16 19 1005.1 1005.0 0.0
29/02:30pm 35.0 33.0 20.8 43 9.6 NW 32 37 17 20 1005.4 - 0.0
29/02:00pm 35.3 33.2 20.6 42 9.9 NW 32 41 17 22 1005.8 - 0.0
29/01:30pm 35.5 34.7 22.3 46 9.1 NW 30 39 16 21 1006.3 - 0.0
29/01:00pm 34.9 33.9 22.6 49 8.5 NW 32 39 17 21 1006.4 - 0.0
29/12:30pm 34.3 33.2 22.5 50 8.1 NW 32 37 17 20 1006.7 - 0.0
29/12:00pm 35.4 34.6 21.6 44 9.4 NW 28 33 15 18 1006.9 1006.8 0.0
29/11:30am 33.9 33.8 22.2 50 8.0 N 26 32 14 17 1007.4 - 0.0
29/11:00am 35.0 35.2 22.0 46 8.9 NNW 24 30 13 16 1007.5 - 0.0
29/10:30am 34.3 34.6 22.9 51 7.9 NNW 26 33 14 18 1007.9 - 0.0
29/10:00am 35.3 34.6 21.1 43 9.6 N 26 33 14 18 1008.1 - 0.0
29/09:53am 35.3 34.7 22.0 46 9.1 N 28 33 15 18 1008.2 - 0.0
29/09:30am 38.1 37.7 12.4 21 15.6 SE 6 11 3 6 1008.3 - 0.0
29/09:00am 36.7 35.3 13.4 24 14.3 SW 13 19 7 10 1008.2 1008.1 0.0
29/08:30am 34.3 33.9 16.1 33 11.5 SSW 13 20 7 11 1008.1 - 0.0
29/08:00am 32.5 32.6 18.3 43 9.2 SW 15 19 8 10 1008.0 - 0.0
29/07:30am 30.1 30.8 19.7 53 6.8 SW 15 17 8 9 1008.2 - 0.0
29/07:00am 28.3 29.0 21.6 67 4.5 WSW 20 24 11 13 1008.1 - 0.0
29/06:30am 26.8 29.5 22.2 76 3.1 WSW 11 15 6 8 1008.2 - 0.0
29/06:00am 24.8 28.0 22.3 86 1.7 WSW 9 11 5 6 1007.9 1007.8 0.0
29/05:30am 23.8 25.4 22.2 91 1.1 WSW 17 19 9 10 1007.3 - 0.0
29/05:00am 23.7 26.3 21.9 90 1.2 WSW 11 15 6 8 1007.3 - 0.0
29/04:30am 24.0 26.4 22.2 90 1.2 W 13 15 7 8 1007.0 - 0.0
29/04:00am 24.5 27.5 22.6 89 1.3 W 11 13 6 7 1007.0 - 0.0
29/03:30am 24.7 27.6 22.5 87 1.5 W 11 15 6 8 1007.2 - 0.0
29/03:00am 24.3 26.4 21.7 85 1.7 W 13 15 7 8 1007.3 1007.2 0.0
29/02:30am 24.9 28.1 21.7 82 2.1 WSW 7 9 4 5 1007.6 - 0.0
29/02:00am 24.7 27.0 21.4 82 2.2 W 11 11 6 6 1007.6 - 0.0
29/01:30am 25.4 28.8 21.6 79 2.5 SW 6 7 3 4 1007.8 - 0.0
29/01:00am 25.8 28.5 21.4 76 2.9 SW 9 11 5 6 1008.0 - 0.0
29/12:30am 26.1 28.8 21.3 75 3.2 WSW 9 13 5 7 1008.3 - 0.0
29/12:00am 26.6 29.9 21.8 75 3.2 SSW 7 11 4 6 1008.8 1008.7 0.0
 
Date/Time
WST
Temp
°C
App
Temp
°C
Dew
Point
Rel
Hum
%
Delta-T
°C
Wind Press
QNH
hPa
Press
MSL
hPa
Rain
since 9 am
mm
Dir
 
Spd
km/h
Gust
km/h
Spd
kts
Gust
kts
28/11:30pm 26.8 29.3 21.7 73 3.4 SSW 11 15 6 8 1009.0 - 0.0
28/11:00pm 26.5 28.7 21.2 72 3.5 W 11 15 6 8 1009.3 - 0.0
28/10:30pm 26.5 28.3 21.2 72 3.5 WNW 13 15 7 8 1009.6 - 0.0
28/10:00pm 27.2 30.7 21.8 72 3.6 W 6 9 3 5 1010.1 - 0.0
28/09:30pm 28.2 31.0 21.6 67 4.4 WSW 9 11 5 6 1010.2 - 0.0
28/09:00pm 27.9 30.1 22.6 73 3.6 W 15 20 8 11 1009.8 1009.7 0.0
28/08:30pm 28.3 29.6 22.4 70 4.0 W 19 24 10 13 1009.5 - 0.0
28/08:00pm 28.6 30.3 22.4 69 4.2 W 17 22 9 12 1009.4 - 0.0
28/07:30pm 29.0 29.5 22.7 69 4.3 W 24 32 13 17 1008.8 - 0.0
28/07:00pm 29.4 29.1 22.5 66 4.7 WNW 28 35 15 19 1008.3 - 0.0
28/06:30pm 30.1 29.9 22.1 62 5.4 WNW 26 32 14 17 1007.7 - 0.0
28/06:00pm 31.1 29.8 21.3 56 6.6 WNW 30 37 16 20 1007.4 1007.3 0.0
28/05:30pm 31.8 30.1 20.6 51 7.5 NW 30 37 16 20 1007.2 - 0.0
28/05:00pm 32.7 31.6 21.1 50 7.8 NW 28 33 15 18 1007.0 - 0.0
28/04:30pm 33.7 32.5 21.6 49 8.2 NW 30 35 16 19 1006.6 - 0.0
28/04:00pm 34.8 33.6 21.6 46 9.0 NW 30 37 16 20 1006.4 - 0.0
28/03:30pm 35.1 33.8 21.4 45 9.3 NW 30 35 16 19 1006.3 - 0.0
28/03:00pm 35.6 32.7 18.9 37 11.0 NW 32 39 17 21 1006.6 1006.5 0.0
28/02:30pm 35.8 33.9 19.4 38 10.9 NW 28 35 15 19 1006.8 - 0.0
28/02:00pm 35.9 33.7 19.5 38 10.9 NW 30 35 16 19 1007.3 - 0.0
28/01:30pm 36.0 34.2 19.6 38 10.9 NW 28 35 15 19 1007.8 - 0.0
28/01:00pm 35.9 35.3 20.5 40 10.4 NW 24 32 13 17 1008.0 - 0.0
28/12:30pm 35.7 35.0 20.2 40 10.4 NNW 24 33 13 18 1008.4 - 0.0
28/12:00pm 35.1 33.5 18.4 37 10.9 NNW 24 30 13 16 1008.7 1008.6 0.0
28/11:30am 35.8 34.5 19.0 37 11.1 NNW 24 32 13 17 1009.1 - 0.0
28/11:00am 35.7 35.6 20.0 39 10.5 N 20 30 11 16 1009.5 - 0.0
28/10:30am 34.9 34.0 17.8 36 11.1 N 19 28 10 15 1009.8 - 0.0
28/10:00am 35.3 35.5 18.5 37 11.0 N 15 20 8 11 1010.1 - 0.0
28/09:30am 34.5 34.8 17.8 37 10.8 N 13 19 7 10 1010.4 - 0.0
28/09:00am 33.2 33.6 18.2 41 9.7 N 13 17 7 9 1010.7 1010.6 0.0
28/08:30am 32.4 33.4 18.7 44 8.9 NNE 11 17 6 9 1010.7 - 0.0
28/08:00am 31.5 32.9 18.7 46 8.3 NNE 9 13 5 7 1010.6 - 0.0
28/07:30am 31.0 32.0 18.7 48 8.0 NE 11 15 6 8 1010.6 - 0.0
28/07:00am 30.7 31.1 18.1 47 8.1 E 13 19 7 10 1010.6 - 0.0
28/06:30am 29.3 30.4 18.8 53 6.8 E 11 15 6 8 1010.3 - 0.0
28/06:00am 27.2 29.6 20.8 68 4.2 E 9 11 5 6 1010.1 1010.0 0.0
28/05:30am 26.5 30.2 21.4 73 3.4 SSE 4 9 2 5 1009.7 - 0.0
28/05:00am 26.4 29.1 21.4 74 3.3 SSE 9 11 5 6 1009.5 - 0.0
28/04:30am 25.8 28.9 21.4 76 2.9 SW 7 9 4 5 1009.3 - 0.0
28/04:00am 26.5 29.6 21.5 74 3.3 SSE 7 11 4 6 1009.0 - 0.0
28/03:30am 26.3 29.6 21.8 76 3.0 SW 7 11 4 6 1008.9 - 0.0
28/03:00am 26.4 30.8 21.4 74 3.3 CALM 0 7 0 4 1009.0 1008.9 0.0
28/02:30am 26.9 29.8 21.8 73 3.4 SW 9 13 5 7 1008.9 - 0.0
28/02:00am 27.5 30.4 21.8 71 3.8 S 9 11 5 6 1008.9 - 0.0
28/01:30am 27.5 30.2 22.2 73 3.6 S 11 15 6 8 1009.2 - 0.0
28/01:00am 27.4 29.9 22.5 74 3.3 SSW 13 17 7 9 1009.2 - 0.0
28/12:30am 27.8 30.9 22.8 74 3.4 S 11 15 6 8 1009.5 - 0.0
28/12:00am 27.8 29.8 23.0 75 3.3 SW 17 22 9 12 1009.5 1009.4 0.0
 
Date/Time
WST
Temp
°C
App
Temp
°C
Dew
Point
Rel
Hum
%
Delta-T
°C
Wind Press
QNH
hPa
Press
MSL
hPa
Rain
since 9 am
mm
Dir
 
Spd
km/h
Gust
km/h
Spd
kts
Gust
kts
27/11:30pm 28.0 29.0 22.9 74 3.5 WSW 22 30 12 16 1009.6 - 0.0
27/11:00pm 28.1 29.8 23.0 74 3.5 WSW 19 24 10 13 1009.9 - 0.0
27/10:30pm 28.2 29.8 22.9 73 3.6 WSW 19 22 10 12 1009.8 - 0.0
27/10:00pm 28.3 30.0 23.0 73 3.6 WSW 19 26 10 14 1009.7 - 0.0
27/09:30pm 28.3 30.1 23.2 74 3.5 WSW 19 24 10 13 1009.5 - 0.0
27/09:00pm 28.6 30.0 23.5 74 3.5 W 22 28 12 15 1009.1 1009.0 0.0
27/08:30pm 28.8 30.6 23.6 73 3.6 W 20 26 11 14 1008.8 - 0.0
27/08:00pm 29.1 30.8 23.4 71 3.9 WNW 20 28 11 15 1008.6 - 0.0
27/07:30pm 29.2 31.0 23.2 70 4.1 WNW 19 24 10 13 1008.2 - 0.0
27/07:00pm 29.4 31.0 23.3 69 4.2 WNW 20 26 11 14 1007.8 - 0.0
27/06:30pm 29.9 31.4 23.1 67 4.7 NW 20 26 11 14 1007.2 - 0.0
27/06:00pm 31.0 31.4 22.5 60 5.8 NW 24 28 13 15 1006.8 1006.7 0.0
27/05:30pm 32.1 32.1 21.6 53 7.1 NNW 24 32 13 17 1006.5 - 0.0
27/05:00pm 33.4 33.4 21.6 50 8.0 NNW 24 32 13 17 1006.4 - 0.0
27/04:30pm 34.5 33.4 20.3 43 9.5 NNW 26 32 14 17 1006.6 - 0.0
27/04:00pm 35.2 34.1 20.3 41 10.0 NNW 26 33 14 18 1006.7 - 0.0
27/03:30pm 35.3 33.6 19.7 40 10.4 N 28 37 15 20 1006.8 - 0.0
27/03:00pm 35.7 33.3 19.1 37 11.0 N 30 39 16 21 1007.0 1006.9 0.0
27/02:30pm 38.1 36.1 18.4 31 13.0 NE 26 39 14 21 1007.1 - 0.0
27/02:00pm 37.9 35.7 16.0 27 14.0 NNE 22 32 12 17 1007.5 - 0.0
27/01:30pm 38.7 35.9 16.3 26 14.4 NE 26 35 14 19 1007.7 - 0.0
27/01:00pm 38.2 34.9 16.0 27 14.2 ENE 28 39 15 21 1008.3 - 0.0
27/12:30pm 38.1 35.0 15.6 26 14.3 E 26 44 14 24 1008.6 - 0.0
27/12:00pm 37.6 34.2 14.8 25 14.3 E 26 43 14 23 1008.8 1008.7 0.0
27/11:30am 36.5 33.9 14.9 27 13.5 ENE 22 35 12 19 1009.0 - 0.0
27/11:14am 36.1 32.3 14.8 28 13.3 ENE 28 50 15 27 1009.1 - 0.0
27/11:00am 36.3 33.0 14.9 28 13.4 E 26 39 14 21 1009.2 - 0.0
27/10:30am 36.1 32.1 15.2 28 13.1 E 30 39 16 21 1009.6 - 0.0
27/10:00am 35.5 31.2 15.4 30 12.6 E 32 43 17 23 1009.9 - 0.0
27/09:30am 34.9 31.9 15.9 32 12.0 ESE 26 37 14 20 1009.9 - 0.0
27/09:00am 33.1 30.4 17.5 39 10.0 E 28 37 15 20 1010.2 1010.1 0.2
27/08:30am 31.3 29.9 18.7 47 8.2 ESE 24 37 13 20 1010.5 - 0.2
27/08:00am 29.7 27.1 18.7 51 7.1 ESE 30 37 16 20 1010.5 - 0.2
27/07:30am 28.9 27.9 18.8 54 6.5 E 22 30 12 16 1010.5 - 0.2
27/07:00am 27.9 26.5 18.9 58 5.8 ESE 24 37 13 20 1010.4 - 0.2
27/06:30am 27.1 25.8 19.0 61 5.2 ESE 24 33 13 18 1009.9 - 0.2
27/06:00am 26.5 26.8 19.6 66 4.5 ESE 17 24 9 13 1009.7 1009.6 0.2
27/05:30am 26.6 27.2 19.5 65 4.6 SE 15 19 8 10 1009.4 - 0.2
27/05:00am 26.2 29.0 21.5 75 3.1 ESE 9 19 5 10 1009.2 - 0.2
27/04:30am 26.3 29.8 22.9 81 2.3 SSE 9 9 5 5 1008.6 - 0.2
27/04:00am 26.7 30.2 22.1 76 3.1 SW 7 9 4 5 1008.4 - 0.0
27/03:30am 26.4 30.2 22.4 78 2.7 WNW 6 7 3 4 1008.1 - 0.0
27/03:00am 26.6 29.7 22.1 76 3.0 NNW 9 9 5 5 1008.1 1008.0 0.0
27/02:30am 26.9 29.9 22.0 74 3.3 W 9 11 5 6 1008.0 - 0.0
27/02:00am 27.1 30.1 22.0 73 3.4 SSW 9 11 5 6 1008.1 - 0.0
27/01:30am 26.7 29.0 22.1 76 3.1 SSW 13 15 7 8 1007.9 - 0.0
27/01:00am 26.6 29.1 22.5 78 2.8 SSW 13 15 7 8 1007.9 - 0.0
27/12:30am 26.9 29.9 22.6 77 2.9 SSW 11 13 6 7 1008.3 - 0.0
27/12:00am 26.8 29.9 22.8 79 2.7 SW 11 15 6 8 1008.1 1008.0 0.0
 
Date/Time
WST
Temp
°C
App
Temp
°C
Dew
Point
Rel
Hum
%
Delta-T
°C
Wind Press
QNH
hPa
Press
MSL
hPa
Rain
since 9 am
mm
Dir
 
Spd
km/h
Gust
km/h
Spd
kts
Gust
kts
26/11:30pm 27.0 29.3 22.7 77 2.9 SW 15 20 8 11 1007.9 - 0.0
26/11:00pm 27.3 29.7 22.9 77 3.0 SW 15 20 8 11 1008.2 - 0.0
26/10:30pm 27.1 29.5 23.0 78 2.8 WSW 15 19 8 10 1008.2 - 0.0
26/10:00pm 27.2 30.1 23.1 78 2.8 W 13 15 7 8 1008.2 - 0.0
26/09:30pm 27.5 30.1 23.3 78 2.9 WSW 15 20 8 11 1008.1 - 0.0
26/09:00pm 27.8 29.7 23.4 77 3.0 W 19 24 10 13 1007.7 1007.6 0.0
26/08:30pm 27.9 29.6 23.4 76 3.1 W 20 26 11 14 1007.5 - 0.0
26/08:00pm 28.1 29.8 23.4 75 3.2 W 20 28 11 15 1007.2 - 0.0
26/07:30pm 28.3 29.9 23.3 74 3.4 WNW 20 24 11 13 1007.1 - 0.0
26/07:00pm 28.4 30.0 23.3 74 3.5 WNW 20 28 11 15 1006.8 - 0.0
26/06:30pm 28.8 29.9 23.0 71 4.0 NW 22 28 12 15 1006.4 - 0.0
26/06:00pm 29.6 30.5 22.7 66 4.7 NW 22 30 12 16 1006.2 1006.1 0.0

Other Formats:

Comma delimited format used in spreadsheet applications
http://www.bom.gov.au/fwo/IDW60801/IDW60801.94312.axf

JavaScript Object Notation format (JSON) in row-major order
http://www.bom.gov.au/fwo/IDW60801/IDW60801.94312.json